Terminal Aerodrome Forecast
Issued by NWS Caribou, ME

Home | Current Version | Previous Version | Text Only | Print | Product List | Glossary On
Versions: 1 2 3 4 5 6 7 8 9 10 11 12 13 14 15 16 17 18 19
000
FTUS41 KCAR 312300
TAFBGR
TAF
KBGR 312339Z 0100/0124 18006KT P6SM VCSH BKN060
     FM010200 18006KT P6SM SCT060
     FM010800 VRB03KT 1SM BR BKN003
     FM011000 VRB03KT 3/4SM BR OVC003
     FM011200 VRB03KT P6SM SCT003
     FM011300 20006KT P6SM SCT250
     FM011600 18010KT P6SM SCT050=

USA.gov is the U.S. government's official web portal to all federal, state and local government web resources and services.